Time;durP1;ratioP1;P1;durP2;ratioP2;P2;SDS_P1;SDS_P2;PMS_P1;PMS_P2;Temp;Humidity;BMP_temperature;BMP_pressure;BME280_temperature;BME280_humidity;BME280_pressure;Samples;Min_cycle;Max_cycle;Signal;HPM_P1;HPM_P2
2023/09/17 00:00:33;;;;;;;927.30;838.85;;;13.40;99.90;;;;;;4898013;29;20258;-87
2023/09/17 00:03:02;;;;;;;968.75;872.42;;;13.40;99.90;;;;;;4889706;29;20049;-87
2023/09/17 00:05:27;;;;;;;936.08;846.28;;;13.40;99.90;;;;;;4893852;29;20080;-88
2023/09/17 00:07:53;;;;;;;939.60;849.17;;;13.40;99.90;;;;;;4889478;29;20530;-88
2023/09/17 00:10:22;;;;;;;968.83;872.88;;;13.40;99.90;;;;;;4910141;29;20076;-88
2023/09/17 00:12:48;;;;;;;973.90;876.40;;;13.40;99.90;;;;;;4889671;29;20063;-88
2023/09/17 00:15:16;;;;;;;974.92;876.67;;;13.50;99.90;;;;;;4896585;29;20051;-88
2023/09/17 00:17:42;;;;;;;974.65;875.95;;;13.40;99.90;;;;;;4895373;29;20136;-88
2023/09/17 00:20:11;;;;;;;980.90;878.35;;;13.40;99.90;;;;;;4897484;29;20139;-88
2023/09/17 00:22:42;;;;;;;950.03;854.88;;;13.10;99.90;;;;;;4903080;29;20127;-88
2023/09/17 00:25:08;;;;;;;974.17;874.95;;;13.40;99.90;;;;;;4894253;29;20048;-88
2023/09/17 00:27:45;;;;;;;923.50;832.15;;;13.40;99.90;;;;;;4891936;29;20119;-89
2023/09/17 00:30:15;;;;;;;955.97;861.67;;;13.40;99.90;;;;;;4903897;29;20051;-88
2023/09/17 00:32:58;;;;;;;925.22;833.97;;;13.40;99.90;;;;;;4910109;29;20112;-88
2023/09/17 00:35:23;;;;;;;973.03;875.88;;;13.40;99.90;;;;;;4895356;29;20071;-88
2023/09/17 00:37:51;;;;;;;945.53;852.88;;;13.40;99.90;;;;;;4895837;29;20489;-88
2023/09/17 00:40:20;;;;;;;928.67;838.25;;;13.40;99.90;;;;;;4887635;29;20529;-88
2023/09/17 00:42:49;;;;;;;931.38;838.92;;;13.30;99.90;;;;;;4911236;29;20108;-88
2023/09/17 00:45:21;;;;;;;968.85;871.13;;;13.40;99.90;;;;;;4900732;29;20063;-88
2023/09/17 00:47:46;;;;;;;944.28;851.85;;;13.40;99.90;;;;;;4879386;29;20056;-89
2023/09/17 00:50:12;;;;;;;946.88;853.13;;;13.40;99.90;;;;;;4895935;29;20063;-88
2023/09/17 00:52:41;;;;;;;980.45;879.00;;;13.40;99.90;;;;;;4881235;29;20044;-89
2023/09/17 00:55:10;;;;;;;958.28;857.17;;;13.40;99.90;;;;;;4879970;29;20120;-88
2023/09/17 00:57:39;;;;;;;1009.25;901.63;;;13.30;99.90;;;;;;4891289;29;20505;-89
2023/09/17 01:00:39;;;;;;;;;;;;;;;;;;;;;
2023/09/17 01:03:08;;;;;;;960.60;860.13;;;13.20;99.90;;;;;;4905925;29;20147;-89
2023/09/17 01:05:39;;;;;;;954.88;856.28;;;13.20;99.90;;;;;;4898189;29;20048;-88
2023/09/17 01:08:10;;;;;;;988.42;885.78;;;13.20;99.90;;;;;;4897556;29;20052;-88
2023/09/17 01:10:39;;;;;;;965.50;866.80;;;13.10;99.90;;;;;;4910327;29;20055;-88
2023/09/17 01:13:08;;;;;;;942.88;847.67;;;13.20;99.90;;;;;;4879399;29;20100;-88
2023/09/17 01:15:34;;;;;;;944.30;849.35;;;13.10;99.90;;;;;;4885323;29;20492;-88
2023/09/17 01:18:02;;;;;;;954.03;857.20;;;13.10;99.90;;;;;;4897398;29;20036;-88
2023/09/17 01:20:33;;;;;;;979.65;879.55;;;13.20;99.90;;;;;;4890922;29;20457;-88
2023/09/17 01:23:18;;;;;;;985.58;886.67;;;13.20;99.90;;;;;;4891222;29;20044;-87
2023/09/17 01:26:03;;;;;;;952.65;852.58;;;13.20;99.90;;;;;;4893793;29;20093;-88
2023/09/17 01:28:33;;;;;;;989.67;889.58;;;13.10;99.90;;;;;;4885216;29;20511;-88
2023/09/17 01:31:00;;;;;;;966.97;869.50;;;13.10;99.90;;;;;;4884750;29;20053;-88
2023/09/17 01:33:27;;;;;;;933.53;840.30;;;13.10;99.90;;;;;;4894220;29;20069;-88
2023/09/17 01:36:24;;;;;;;979.47;879.97;;;13.10;99.90;;;;;;4889417;29;20048;-88
2023/09/17 01:38:57;;;;;;;939.08;844.25;;;13.10;99.90;;;;;;4905580;29;20085;-88
2023/09/17 01:41:27;;;;;;;961.83;865.30;;;13.10;99.90;;;;;;4909495;29;20812;-88
2023/09/17 01:43:54;;;;;;;1010.88;908.65;;;13.10;99.90;;;;;;4878383;29;20056;-88
2023/09/17 01:46:22;;;;;;;970.58;872.63;;;13.10;99.90;;;;;;4878520;29;20147;-88
2023/09/17 01:48:49;;;;;;;963.95;868.40;;;13.10;99.90;;;;;;4888762;29;20512;-88
2023/09/17 01:51:18;;;;;;;979.83;880.75;;;13.20;99.90;;;;;;4888907;29;20048;-88
2023/09/17 01:53:44;;;;;;;989.78;888.08;;;13.20;99.90;;;;;;4892154;29;20174;-88
2023/09/17 01:56:12;;;;;;;996.67;892.60;;;13.20;99.90;;;;;;4894944;29;20456;-87
2023/09/17 01:58:37;;;;;;;1003.70;898.45;;;13.20;99.90;;;;;;4911573;29;20050;-88
2023/09/17 02:01:03;;;;;;;982.03;881.20;;;13.20;99.90;;;;;;4896872;29;20048;-88
2023/09/17 02:03:30;;;;;;;960.00;860.78;;;13.30;99.90;;;;;;4895424;29;20048;-87
2023/09/17 02:05:57;;;;;;;985.17;882.67;;;13.30;99.90;;;;;;4892416;29;20377;-88
2023/09/17 02:08:22;;;;;;;964.05;866.42;;;13.30;99.90;;;;;;4908206;29;20084;-88
2023/09/17 02:10:48;;;;;;;997.55;892.50;;;13.30;99.90;;;;;;4892605;29;20487;-88
2023/09/17 02:13:14;;;;;;;976.75;874.30;;;13.30;99.90;;;;;;4894508;29;20127;-87
2023/09/17 02:15:40;;;;;;;980.20;878.80;;;13.30;99.90;;;;;;4885326;29;20059;-87
2023/09/17 02:18:08;;;;;;;989.85;888.97;;;13.30;99.90;;;;;;4895685;29;20059;-87
2023/09/17 02:20:38;;;;;;;992.40;887.53;;;13.30;99.90;;;;;;4896668;29;20048;-88
2023/09/17 02:23:04;;;;;;;1012.50;904.85;;;13.20;99.90;;;;;;4896397;29;20048;-88
2023/09/17 02:25:30;;;;;;;988.78;884.70;;;13.20;99.90;;;;;;4902694;29;20040;-88
2023/09/17 02:27:58;;;;;;;993.53;890.47;;;13.20;99.90;;;;;;4922078;29;20051;-88
2023/09/17 02:30:24;;;;;;;995.78;892.67;;;13.20;99.90;;;;;;4886941;29;20385;-88
2023/09/17 02:32:50;;;;;;;1007.95;901.47;;;13.20;99.90;;;;;;4883301;29;20111;-89
2023/09/17 02:35:26;;;;;;;;;;;;;;;;;;;;;
2023/09/17 02:38:02;;;;;;;989.47;886.67;;;13.20;99.90;;;;;;4893362;29;20048;-88
2023/09/17 02:40:30;;;;;;;966.45;868.58;;;13.30;99.90;;;;;;4893866;29;20048;-88
2023/09/17 02:42:56;;;;;;;996.72;892.10;;;13.30;99.90;;;;;;4911697;29;20051;-88
2023/09/17 02:45:22;;;;;;;997.58;891.55;;;13.30;99.90;;;;;;4896041;29;20044;-88
2023/09/17 02:47:48;;;;;;;964.30;865.45;;;13.30;99.90;;;;;;4896072;29;20405;-89
2023/09/17 02:50:24;;;;;;;962.45;864.92;;;13.40;99.90;;;;;;4899297;29;20064;-88
2023/09/17 02:52:49;;;;;;;989.60;886.88;;;13.30;99.90;;;;;;4894897;29;20127;-88
2023/09/17 02:55:15;;;;;;;982.40;880.25;;;13.30;99.90;;;;;;4896323;29;20499;-88
2023/09/17 02:57:43;;;;;;;977.70;875.55;;;13.40;99.90;;;;;;4903903;29;20381;-88
2023/09/17 03:00:10;;;;;;;1010.90;903.00;;;13.30;99.90;;;;;;4904976;29;20051;-88
2023/09/17 03:02:40;;;;;;;992.45;887.58;;;13.30;99.90;;;;;;4895455;29;20052;-88
2023/09/17 03:05:09;;;;;;;973.10;871.78;;;13.40;99.90;;;;;;4877993;29;20044;-88
2023/09/17 03:07:35;;;;;;;1002.17;896.35;;;13.40;99.90;;;;;;4886804;29;20074;-88
2023/09/17 03:10:07;;;;;;;1004.40;897.15;;;13.50;99.90;;;;;;4894780;29;20048;-88
2023/09/17 03:12:38;;;;;;;998.25;892.72;;;13.50;99.90;;;;;;4892619;29;20116;-88
2023/09/17 03:15:08;;;;;;;995.83;892.88;;;13.50;99.90;;;;;;4889811;29;20044;-88
2023/09/17 03:17:37;;;;;;;1007.90;899.95;;;13.60;99.90;;;;;;4899732;29;20412;-88
2023/09/17 03:20:13;;;;;;;1012.00;901.92;;;13.60;99.90;;;;;;4892947;29;20060;-87
2023/09/17 03:22:46;;;;;;;1002.55;896.97;;;13.70;99.90;;;;;;4897368;29;20123;-88
2023/09/17 03:25:12;;;;;;;1005.22;897.75;;;13.70;99.90;;;;;;4881997;29;20146;-88
2023/09/17 03:27:45;;;;;;;1021.60;910.35;;;13.80;99.90;;;;;;4892585;29;20050;-88
2023/09/17 03:30:12;;;;;;;1014.58;905.45;;;13.80;99.90;;;;;;4900918;29;20136;-88
2023/09/17 03:32:38;;;;;;;1044.93;927.72;;;13.80;99.90;;;;;;4904308;29;20048;-88
2023/09/17 03:35:06;;;;;;;1048.75;933.45;;;13.80;99.90;;;;;;4894512;29;20044;-87
2023/09/17 03:37:31;;;;;;;1007.22;899.35;;;13.90;99.90;;;;;;4898890;29;20044;-88
2023/09/17 03:40:10;;;;;;;1034.85;919.15;;;13.90;99.90;;;;;;4892426;29;20190;-88
2023/09/17 03:42:39;;;;;;;1026.35;915.08;;;13.90;99.90;;;;;;4893441;29;20051;-88
2023/09/17 03:45:09;;;;;;;1026.18;916.50;;;14.00;99.90;;;;;;4905502;29;20155;-88
2023/09/17 03:47:36;;;;;;;989.95;885.85;;;13.90;99.90;;;;;;4897534;29;20489;-88
2023/09/17 03:50:08;;;;;;;1003.55;896.65;;;14.00;99.90;;;;;;4889063;29;20405;-89
2023/09/17 03:52:36;;;;;;;1013.65;907.10;;;14.00;99.90;;;;;;4903378;29;20052;-87
2023/09/17 03:55:09;;;;;;;981.67;879.88;;;14.00;99.90;;;;;;4883557;29;20059;-88
2023/09/17 03:57:36;;;;;;;987.65;885.97;;;14.00;99.90;;;;;;4908086;29;20044;-88
2023/09/17 04:00:11;;;;;;;1002.80;899.17;;;14.10;99.90;;;;;;4891893;29;20052;-88
2023/09/17 04:02:41;;;;;;;985.60;884.42;;;14.10;99.90;;;;;;4907802;29;20084;-88
2023/09/17 04:05:12;;;;;;;995.78;890.22;;;14.10;99.90;;;;;;4903544;29;20090;-88
2023/09/17 04:07:40;;;;;;;1004.78;897.55;;;14.10;99.90;;;;;;4883172;29;20072;-89
2023/09/17 04:10:17;;;;;;;1029.53;916.03;;;14.10;99.90;;;;;;4895860;29;20048;-88
2023/09/17 04:12:52;;;;;;;1063.00;930.97;;;14.20;99.90;;;;;;4888234;29;20116;-88
2023/09/17 04:15:21;;;;;;;982.13;881.08;;;14.10;99.90;;;;;;4882868;29;20326;-88
2023/09/17 04:17:50;;;;;;;993.00;889.47;;;14.10;99.90;;;;;;4879411;29;20057;-88
2023/09/17 04:20:18;;;;;;;1019.63;909.55;;;14.10;99.90;;;;;;4907829;29;20058;-86
2023/09/17 04:22:47;;;;;;;1052.47;938.08;;;14.10;99.90;;;;;;4883159;29;20088;-88
2023/09/17 04:25:33;;;;;;;982.90;881.58;;;14.10;99.90;;;;;;4894328;29;20115;-89
2023/09/17 04:27:59;;;;;;;1026.72;914.03;;;14.10;99.90;;;;;;4879952;29;20063;-88
2023/09/17 04:30:35;;;;;;;;;;;;;;;;;;;;;
2023/09/17 04:33:04;;;;;;;1017.88;908.85;;;14.10;99.90;;;;;;4913536;29;20396;-88
2023/09/17 04:35:30;;;;;;;1027.88;914.03;;;14.10;99.90;;;;;;4898453;29;20084;-88
2023/09/17 04:37:56;;;;;;;1029.07;917.90;;;14.10;99.90;;;;;;4896608;29;20040;-87
2023/09/17 04:40:34;;;;;;;;;;;;;;;;;;;;;
2023/09/17 04:43:10;;;;;;;1029.20;919.95;;;14.10;99.90;;;;;;4909344;29;20135;-87
2023/09/17 04:45:42;;;;;;;1037.38;925.42;;;14.10;99.90;;;;;;4898438;29;20485;-88
2023/09/17 04:48:09;;;;;;;1026.68;916.15;;;14.20;99.90;;;;;;4897863;29;20044;-88
2023/09/17 04:50:39;;;;;;;1048.97;923.15;;;14.20;99.90;;;;;;4893081;29;20041;-88
2023/09/17 04:53:04;;;;;;;938.90;846.58;;;14.30;99.90;;;;;;4892159;29;20134;-87
2023/09/17 04:55:39;;;;;;;1007.95;902.20;;;14.30;99.90;;;;;;4893222;29;20135;-88
2023/09/17 04:58:05;;;;;;;982.65;881.35;;;14.30;99.90;;;;;;4890081;29;20131;-88
2023/09/17 05:00:34;;;;;;;1013.72;907.65;;;14.40;99.90;;;;;;4897620;29;20127;-88
2023/09/17 05:03:00;;;;;;;1030.97;920.00;;;14.40;99.90;;;;;;4889471;29;20156;-88
2023/09/17 05:05:26;;;;;;;975.03;877.13;;;14.40;99.90;;;;;;4895382;29;20050;-88
2023/09/17 05:07:57;;;;;;;924.92;836.25;;;14.50;99.90;;;;;;4883919;29;20048;-87
2023/09/17 05:10:23;;;;;;;933.05;841.00;;;14.50;99.90;;;;;;4888278;29;20049;-88
2023/09/17 05:12:49;;;;;;;956.60;860.67;;;14.60;99.90;;;;;;4887012;29;20044;-88
2023/09/17 05:15:15;;;;;;;949.53;853.40;;;14.60;99.90;;;;;;4879393;29;20488;-88
2023/09/17 05:17:40;;;;;;;946.25;853.13;;;14.70;99.90;;;;;;4893533;29;20044;-87
2023/09/17 05:20:07;;;;;;;915.88;826.90;;;14.60;99.90;;;;;;4888637;29;20116;-87
2023/09/17 05:22:34;;;;;;;923.28;832.83;;;14.70;99.90;;;;;;4903453;29;20048;-87
2023/09/17 05:25:00;;;;;;;924.30;834.03;;;14.70;99.90;;;;;;4891341;29;20040;-87
2023/09/17 05:27:25;;;;;;;948.65;851.47;;;14.60;99.90;;;;;;4908789;29;20056;-83
2023/09/17 05:29:54;;;;;;;1003.95;900.15;;;14.70;99.90;;;;;;4907014;29;20060;-87
2023/09/17 05:32:19;;;;;;;944.03;850.08;;;14.70;99.90;;;;;;4898426;29;21261;-86
2023/09/17 05:34:45;;;;;;;959.85;863.13;;;14.70;99.90;;;;;;4885135;29;20088;-86
2023/09/17 05:37:11;;;;;;;980.72;878.83;;;14.70;99.90;;;;;;4885990;29;20508;-86
2023/09/17 05:39:36;;;;;;;966.40;868.33;;;14.60;99.90;;;;;;4902093;29;20048;-87
2023/09/17 05:42:02;;;;;;;1000.22;895.78;;;14.80;99.90;;;;;;4884465;29;20052;-86
2023/09/17 05:44:28;;;;;;;991.63;888.67;;;14.80;99.90;;;;;;4887317;29;20071;-86
2023/09/17 05:46:54;;;;;;;984.63;883.08;;;14.80;99.90;;;;;;4901849;29;20075;-87
2023/09/17 05:49:22;;;;;;;989.95;888.17;;;14.80;99.90;;;;;;4889373;29;20136;-84
2023/09/17 05:51:47;;;;;;;979.63;879.60;;;14.80;99.90;;;;;;4892115;29;20051;-87
2023/09/17 05:54:13;;;;;;;998.63;894.20;;;14.80;99.90;;;;;;4886366;29;20044;-87
2023/09/17 05:56:39;;;;;;;991.88;889.38;;;14.90;99.90;;;;;;4887920;29;20131;-86
2023/09/17 05:59:04;;;;;;;1005.70;900.88;;;14.90;99.90;;;;;;4889855;29;20055;-87
2023/09/17 06:01:30;;;;;;;1020.08;911.00;;;14.90;99.90;;;;;;4887217;29;20499;-86
2023/09/17 06:03:56;;;;;;;992.60;889.70;;;15.00;99.90;;;;;;4884036;29;20385;-87
2023/09/17 06:06:22;;;;;;;972.17;873.88;;;15.00;99.90;;;;;;4893257;29;20126;-87
2023/09/17 06:08:50;;;;;;;966.10;868.08;;;15.10;99.90;;;;;;4892910;29;20048;-85
2023/09/17 06:11:18;;;;;;;978.03;877.28;;;15.30;99.90;;;;;;4891998;29;20507;-86
2023/09/17 06:13:44;;;;;;;988.40;885.67;;;15.30;99.90;;;;;;4892308;29;20158;-83
2023/09/17 06:16:09;;;;;;;994.70;891.25;;;15.40;99.90;;;;;;4901064;29;20131;-82
2023/09/17 06:18:35;;;;;;;1012.88;905.10;;;15.50;99.90;;;;;;4895809;29;20118;-86
2023/09/17 06:21:01;;;;;;;987.88;883.47;;;15.60;99.90;;;;;;4885590;29;20052;-85
2023/09/17 06:23:27;;;;;;;993.47;889.97;;;15.60;99.90;;;;;;4892817;29;20875;-86
2023/09/17 06:25:53;;;;;;;1009.78;902.25;;;15.50;99.90;;;;;;4902151;29;20066;-85
2023/09/17 06:28:19;;;;;;;952.75;854.17;;;15.70;99.90;;;;;;4894695;29;20040;-85
2023/09/17 06:30:46;;;;;;;1002.83;896.30;;;15.80;99.90;;;;;;4905978;29;20052;-85
2023/09/17 06:33:11;;;;;;;949.78;852.97;;;15.90;99.90;;;;;;4907613;29;20040;-86
2023/09/17 06:35:37;;;;;;;989.97;884.65;;;15.90;99.90;;;;;;4910944;29;20055;-86
2023/09/17 06:38:03;;;;;;;980.67;877.15;;;16.00;99.90;;;;;;4895849;29;20917;-86
2023/09/17 06:40:29;;;;;;;919.42;826.97;;;16.00;99.90;;;;;;4900000;29;20048;-86
2023/09/17 06:42:54;;;;;;;942.13;844.42;;;16.00;99.90;;;;;;4888100;29;20040;-86
2023/09/17 06:45:20;;;;;;;950.40;851.15;;;16.10;99.90;;;;;;4909947;29;20080;-86
2023/09/17 06:47:49;;;;;;;909.60;820.53;;;16.10;99.90;;;;;;4877530;29;20048;-86
2023/09/17 06:50:18;;;;;;;874.92;789.78;;;16.10;99.90;;;;;;4898143;29;20044;-87
2023/09/17 06:52:44;;;;;;;909.60;817.67;;;16.20;99.90;;;;;;4899340;29;20064;-87
2023/09/17 06:55:09;;;;;;;873.38;785.95;;;16.20;99.90;;;;;;4902295;29;20056;-87
2023/09/17 06:57:35;;;;;;;885.45;795.75;;;16.20;99.90;;;;;;4910490;29;20819;-88
2023/09/17 07:00:06;;;;;;;873.00;787.60;;;16.30;99.90;;;;;;4898989;29;20489;-87
2023/09/17 07:02:42;;;;;;;;;;;;;;;;;;;;;
2023/09/17 07:05:14;;;;;;;911.50;822.70;;;16.40;99.90;;;;;;4902879;29;20048;-87
2023/09/17 07:07:40;;;;;;;878.55;791.35;;;16.50;99.90;;;;;;4884919;29;20469;-87
2023/09/17 07:10:06;;;;;;;858.47;775.75;;;16.50;99.90;;;;;;4894373;29;20056;-87
2023/09/17 07:12:37;;;;;;;921.80;830.42;;;16.50;99.90;;;;;;4893473;29;20056;-87
2023/09/17 07:15:10;;;;;;;857.00;775.58;;;16.60;99.90;;;;;;4878855;29;20052;-86
2023/09/17 07:17:41;;;;;;;866.25;782.30;;;16.70;99.90;;;;;;4895097;29;20404;-89
2023/09/17 07:20:13;;;;;;;880.95;795.92;;;16.80;99.90;;;;;;4910310;29;20055;-87
2023/09/17 07:22:40;;;;;;;805.33;728.80;;;16.90;99.90;;;;;;4891085;29;20155;-87
2023/09/17 07:25:09;;;;;;;683.08;621.35;;;17.00;99.90;;;;;;4894736;29;20211;-88
2023/09/17 07:27:35;;;;;;;732.13;664.53;;;17.00;99.90;;;;;;4890046;29;20128;-87
2023/09/17 07:30:01;;;;;;;652.55;592.88;;;17.10;99.90;;;;;;4902332;29;20084;-87
2023/09/17 07:32:28;;;;;;;641.75;583.38;;;17.20;99.90;;;;;;4906069;29;20088;-87
2023/09/17 07:35:03;;;;;;;661.65;602.05;;;17.30;99.90;;;;;;4901050;29;20040;-88
2023/09/17 07:37:31;;;;;;;744.90;678.72;;;17.40;99.90;;;;;;4880867;29;20044;-87
2023/09/17 07:40:01;;;;;;;649.35;590.78;;;17.40;99.90;;;;;;4897378;29;20088;-87
2023/09/17 07:42:27;;;;;;;754.33;687.20;;;17.60;99.90;;;;;;4892062;29;20059;-86
2023/09/17 07:44:53;;;;;;;761.22;693.53;;;17.60;99.90;;;;;;4894401;29;20056;-87
2023/09/17 07:47:19;;;;;;;830.80;753.85;;;17.70;99.90;;;;;;4891660;29;20140;-86
2023/09/17 07:49:54;;;;;;;774.28;705.30;;;17.70;99.90;;;;;;4901324;29;20071;-87
2023/09/17 07:52:21;;;;;;;856.78;770.92;;;17.80;99.90;;;;;;4903451;29;20053;-87
2023/09/17 07:54:58;;;;;;;;;;;;;;;;;;;;;
2023/09/17 07:57:40;;;;;;;825.45;743.22;;;17.90;99.90;;;;;;4908808;29;20128;-87
2023/09/17 08:00:06;;;;;;;799.78;721.30;;;17.90;99.90;;;;;;4878889;29;20091;-88
2023/09/17 08:02:32;;;;;;;788.83;712.38;;;18.00;99.90;;;;;;4892954;29;20051;-87
2023/09/17 08:04:58;;;;;;;809.85;730.95;;;18.00;99.90;;;;;;4886813;29;20359;-87
2023/09/17 08:07:24;;;;;;;850.28;766.03;;;18.00;99.90;;;;;;4890972;29;20060;-87
2023/09/17 08:10:00;;;;;;;769.75;697.63;;;18.10;99.90;;;;;;4887093;29;20055;-87
2023/09/17 08:12:32;;;;;;;726.28;659.80;;;18.10;99.90;;;;;;4890805;29;20136;-87
2023/09/17 08:15:01;;;;;;;733.88;666.42;;;18.20;99.90;;;;;;4897053;29;20049;-87
2023/09/17 08:17:26;;;;;;;807.33;729.25;;;18.20;99.90;;;;;;4893543;29;20048;-87
2023/09/17 08:19:58;;;;;;;772.85;699.60;;;18.30;99.90;;;;;;4909779;29;20044;-88
2023/09/17 08:22:29;;;;;;;762.90;693.20;;;18.30;99.90;;;;;;4898037;29;20055;-88
2023/09/17 08:24:54;;;;;;;768.47;696.78;;;18.30;99.90;;;;;;4890552;29;20036;-87
2023/09/17 08:27:21;;;;;;;849.50;769.50;;;18.30;99.90;;;;;;4892525;29;20379;-88
2023/09/17 08:29:57;;;;;;;773.97;704.33;;;18.30;99.90;;;;;;4887786;29;20044;-87
2023/09/17 08:32:23;;;;;;;693.03;632.10;;;18.40;99.90;;;;;;4889488;29;20481;-87
2023/09/17 08:34:48;;;;;;;767.63;698.17;;;18.40;99.90;;;;;;4887384;29;20048;-86
2023/09/17 08:37:17;;;;;;;813.83;739.65;;;18.50;99.90;;;;;;4905437;29;20043;-88
2023/09/17 08:39:50;;;;;;;830.63;753.83;;;18.50;99.90;;;;;;4885438;29;20127;-87
2023/09/17 08:42:16;;;;;;;;;;;18.50;99.90;;;;;;4900921;29;20129;-87
2023/09/17 08:45:03;;;;;;;858.50;779.78;;;18.50;99.90;;;;;;4889745;29;19950;-86
2023/09/17 08:47:29;;;;;;;941.67;848.15;;;18.50;99.90;;;;;;4888237;29;20290;-87
2023/09/17 08:49:58;;;;;;;918.70;830.53;;;18.60;99.90;;;;;;4888151;29;20563;-87
2023/09/17 08:52:26;;;;;;;967.25;869.78;;;18.50;99.90;;;;;;4890218;29;20055;-88
2023/09/17 08:55:26;;;;;;;958.05;858.30;;;18.50;99.90;;;;;;4895379;29;20048;-87
2023/09/17 08:58:24;;;;;;;950.00;852.75;;;18.50;99.90;;;;;;4891783;29;20087;-89
2023/09/17 09:01:14;;;;;;;;;;;;;;;;;;;;;
2023/09/17 09:04:02;;;;;;;955.05;854.53;;;18.50;99.90;;;;;;4909346;29;20055;-90
2023/09/17 09:06:32;;;;;;;931.38;835.40;;;18.50;99.90;;;;;;4894301;29;20051;-89
2023/09/17 09:09:01;;;;;;;947.63;851.03;;;18.60;99.90;;;;;;4903601;29;20409;-88
2023/09/17 09:12:12;;;;;;;903.53;814.53;;;18.60;99.90;;;;;;4900469;29;20055;-86
2023/09/17 09:15:35;;;;;;;955.00;859.17;;;18.60;99.90;;;;;;4905749;29;20229;-89
2023/09/17 09:18:21;;;;;;;975.72;877.17;;;18.70;99.90;;;;;;4892902;29;20112;-87
2023/09/17 09:21:10;;;;;;;974.25;875.42;;;18.60;99.90;;;;;;4900585;29;20050;-88
2023/09/17 09:23:36;;;;;;;1021.13;912.40;;;18.70;99.90;;;;;;4891167;29;20063;-88
2023/09/17 09:26:38;;;;;;;;;;;;;;;;;;;;;
2023/09/17 09:29:26;;;;;;;;;;;;;;;;;;;;;
2023/09/17 09:32:12;;;;;;;883.22;795.20;;;18.60;99.90;;;;;;4900928;29;20052;-88
2023/09/17 09:34:38;;;;;;;;;;;18.70;99.90;;;;;;4880914;29;20067;-87
2023/09/17 09:37:08;;;;;;;959.05;860.88;;;18.80;99.90;;;;;;4881012;29;19934;-88
2023/09/17 09:39:40;;;;;;;866.00;780.75;;;18.90;99.90;;;;;;4904156;29;20128;-87
2023/09/17 09:42:08;;;;;;;971.15;867.33;;;18.90;99.90;;;;;;4890186;29;20109;-88
2023/09/17 09:45:19;;;;;;;;;;;;;;;;;;;;;
2023/09/17 09:47:56;;;;;;;1008.83;902.40;;;19.00;99.90;;;;;;4897172;29;20433;-88
2023/09/17 09:50:48;;;;;;;1012.45;905.00;;;19.10;99.90;;;;;;4884628;29;20401;-89
2023/09/17 09:53:36;;;;;;;991.33;884.05;;;19.10;99.90;;;;;;4910804;29;20051;-88
2023/09/17 09:56:07;;;;;;;953.75;852.85;;;19.00;99.90;;;;;;4884777;29;20052;-89
2023/09/17 09:58:33;;;;;;;969.45;864.33;;;19.10;99.90;;;;;;4884730;29;20048;-89
2023/09/17 10:01:02;;;;;;;990.17;888.03;;;19.10;99.90;;;;;;4899906;29;20165;-88
2023/09/17 10:03:28;;;;;;;1005.25;897.22;;;19.10;99.90;;;;;;4894977;29;20158;-88
2023/09/17 10:06:04;;;;;;;1014.10;907.40;;;19.20;99.90;;;;;;4885463;29;20061;-88
2023/09/17 10:08:41;;;;;;;1012.05;905.80;;;19.30;99.90;;;;;;4890059;29;20496;-88
2023/09/17 10:11:38;;;;;;;917.92;825.15;;;19.50;99.90;;;;;;4908102;29;20044;-88
2023/09/17 10:14:08;;;;;;;960.00;861.38;;;19.50;99.90;;;;;;4893958;29;20131;-89
2023/09/17 10:19:25;;;;;;;847.60;769.10;;;19.50;99.90;;;;;;4934280;23;20056;-89
2023/09/17 10:21:55;;;;;;;954.38;854.60;;;19.50;99.90;;;;;;4893631;29;20053;-88
2023/09/17 10:24:23;;;;;;;948.72;850.35;;;19.50;99.90;;;;;;4891768;29;20082;-87
2023/09/17 10:26:56;;;;;;;912.22;819.13;;;19.60;99.90;;;;;;4887915;29;20084;-86
2023/09/17 10:29:23;;;;;;;;;;;19.50;99.90;;;;;;4889883;29;20464;-87
2023/09/17 10:31:50;;;;;;;875.67;789.75;;;19.50;99.90;;;;;;4885923;29;19919;-86
2023/09/17 10:34:17;;;;;;;878.67;793.53;;;19.50;99.90;;;;;;4893203;29;20086;-86
2023/09/17 10:36:45;;;;;;;938.78;840.17;;;19.50;99.90;;;;;;4906046;29;20599;-87
2023/09/17 10:39:15;;;;;;;920.05;825.67;;;19.50;99.90;;;;;;4892602;29;20116;-87
2023/09/17 10:41:44;;;;;;;971.13;866.53;;;19.50;99.90;;;;;;4895442;29;20053;-87
2023/09/17 10:44:14;;;;;;;975.05;872.33;;;19.50;99.90;;;;;;4889101;29;20047;-85
2023/09/17 10:46:45;;;;;;;1017.70;907.30;;;19.50;99.90;;;;;;4888988;29;20132;-85
2023/09/17 10:49:12;;;;;;;1064.07;946.08;;;19.50;99.90;;;;;;4909659;29;20044;-85
2023/09/17 10:51:39;;;;;;;999.90;895.38;;;19.50;99.90;;;;;;4904677;29;20413;-85
2023/09/17 10:54:05;;;;;;;1058.72;942.40;;;19.40;99.90;;;;;;4900417;29;20048;-86
2023/09/17 10:56:33;;;;;;;1044.18;929.55;;;19.40;99.90;;;;;;4883128;29;20124;-84
2023/09/17 10:58:59;;;;;;;1040.93;922.05;;;19.40;99.90;;;;;;4887188;29;20053;-84
2023/09/17 11:01:32;;;;;;;981.40;873.30;;;19.50;99.90;;;;;;4889899;29;20048;-84
2023/09/17 11:04:14;;;;;;;1008.35;899.00;;;19.50;99.90;;;;;;4907104;29;20410;-85
2023/09/17 11:06:45;;;;;;;1033.40;919.65;;;19.60;99.90;;;;;;4904614;29;21468;-84
2023/09/17 11:09:12;;;;;;;1023.25;911.58;;;19.60;99.90;;;;;;4900560;29;20532;-86
2023/09/17 11:11:40;;;;;;;943.30;840.30;;;19.50;99.90;;;;;;4901923;29;20088;-86
2023/09/17 11:14:08;;;;;;;991.00;882.92;;;19.40;99.90;;;;;;4890306;29;20124;-85
2023/09/17 11:16:35;;;;;;;864.72;777.38;;;19.40;99.90;;;;;;4885984;29;20048;-85
2023/09/17 11:19:11;;;;;;;884.75;793.17;;;19.40;99.90;;;;;;4907387;29;20496;-82
2023/09/17 11:21:49;;;;;;;752.00;682.10;;;19.30;99.90;;;;;;4909312;29;20067;-87
2023/09/17 11:24:17;;;;;;;679.95;620.33;;;19.20;99.90;;;;;;4892241;29;20052;-86
2023/09/17 11:26:45;;;;;;;698.67;637.60;;;19.20;99.90;;;;;;4903930;29;20124;-87
2023/09/17 11:29:13;;;;;;;695.97;636.15;;;19.40;99.90;;;;;;4881927;29;20469;-87
2023/09/17 11:31:54;;;;;;;656.25;601.60;;;19.60;99.90;;;;;;4881498;29;20044;-87
2023/09/17 11:34:31;;;;;;;805.03;733.40;;;19.80;99.90;;;;;;4888117;29;20581;-88
2023/09/17 11:36:57;;;;;;;823.40;749.45;;;20.00;99.90;;;;;;4904207;29;20623;-85
2023/09/17 11:39:24;;;;;;;910.08;819.15;;;20.10;99.90;;;;;;4905013;29;20477;-85
2023/09/17 11:42:03;;;;;;;893.20;805.65;;;20.10;99.90;;;;;;4893215;29;20048;-85
2023/09/17 11:44:30;;;;;;;928.22;832.58;;;20.10;99.90;;;;;;4894059;29;20048;-86
2023/09/17 11:46:56;;;;;;;1037.35;926.90;;;20.00;99.90;;;;;;4888439;29;20044;-87
2023/09/17 11:49:22;;;;;;;1038.05;926.47;;;20.00;99.90;;;;;;4908637;29;20579;-85
2023/09/17 11:51:49;;;;;;;835.10;754.55;;;19.90;99.90;;;;;;4901443;29;20128;-85
2023/09/17 11:54:16;;;;;;;737.78;674.58;;;19.90;99.90;;;;;;4893784;29;20052;-86
2023/09/17 11:56:52;;;;;;;794.38;723.28;;;20.00;99.90;;;;;;4887216;29;20080;-86
2023/09/17 11:59:18;;;;;;;918.80;826.72;;;19.90;99.90;;;;;;4903661;29;20076;-86
2023/09/17 12:01:57;;;;;;;927.88;834.17;;;19.90;99.90;;;;;;4881082;29;20045;-85
2023/09/17 12:04:25;;;;;;;874.33;789.47;;;19.80;99.90;;;;;;4887454;29;20052;-85
2023/09/17 12:06:53;;;;;;;753.67;687.30;;;19.80;99.90;;;;;;4901138;29;20832;-84
2023/09/17 12:12:04;;;;;;;689.63;632.03;;;19.80;99.90;;;;;;4896433;29;20454;-85
2023/09/17 12:14:32;;;;;;;927.83;833.83;;;19.90;99.90;;;;;;4895114;29;20076;-85
2023/09/17 12:16:58;;;;;;;844.03;766.13;;;19.90;99.90;;;;;;4890053;29;20426;-85
2023/09/17 12:19:25;;;;;;;804.15;733.60;;;20.00;99.90;;;;;;4883931;29;20057;-85
2023/09/17 12:21:53;;;;;;;687.80;629.25;;;20.00;99.90;;;;;;4889986;29;20150;-85
2023/09/17 12:24:44;;;;;;;757.42;690.97;;;20.20;99.90;;;;;;4891048;29;20056;-84
2023/09/17 12:27:22;;;;;;;676.47;618.83;;;20.30;99.90;;;;;;4881517;29;20052;-85
2023/09/17 12:29:48;;;;;;;722.13;659.67;;;20.50;99.90;;;;;;4888335;29;20107;-84
2023/09/17 12:32:16;;;;;;;747.15;680.42;;;20.80;99.90;;;;;;4891988;29;20048;-84
2023/09/17 12:34:42;;;;;;;898.83;810.20;;;21.00;99.90;;;;;;4895095;29;20567;-83
2023/09/17 12:37:11;;;;;;;1007.70;897.65;;;21.20;99.90;;;;;;4909045;29;20040;-83
2023/09/17 12:39:38;;;;;;;1007.65;896.47;;;21.20;99.90;;;;;;4887382;29;20044;-83